Latest Coastal Weather Observations for Townsville

IDQ60701

Issued at 5:13 am EST Sunday 14 April 2024 (issued every 10 minutes, with the page automatically refreshed every 10 minutes)

About coastal observations | Map of coastal stations | Coastal observations for QLD | Marine services | Other Formats
Station Details ID: 032040 Name: TOWNSVILLE AERO Lat: -19.25 Lon: 146.77 Height: 4.34 m
Data from the previous 72 hours. | See also: Recent months at Townsville
Date/Time
EST
Wind Sea
Height
m
Swell Vis
km
Cloud Weather Temp
°C
Press
MSL
hPa
Rain since
9am
mm
Dir  Spd
kts
Gust
kts
Height
m
Period
s
Dir
14/05:00am SSE 5 6 - - - - 10 Clear - 21.3 1016.5 0.0
14/04:30am S 3 4 - - - - 10 - - 21.7 1016.4 0.0
14/04:00am WSW 1 4 - - - - 10 - - 21.6 1016.3 0.0
14/03:30am SSW 4 5 - - - - 10 - - 21.8 1016.3 0.0
14/03:00am S 5 6 - - - - 10 Mostly clear - 22.8 1016.3 0.0
14/02:30am S 5 6 - - - - 10 Partly cloudy - 23.0 1016.4 0.0
14/02:00am SSW 6 7 - - - - 10 Partly cloudy - 23.1 1016.7 0.0
14/01:30am S 5 6 - - - - 10 - - 22.9 1016.8 0.0
14/01:00am SSE 5 7 - - - - 10 Partly cloudy - 23.0 1017.2 0.0
14/12:30am S 4 5 - - - - 10 Partly cloudy - 23.3 1017.4 0.0
14/12:00am SE 5 6 - - - - 10 Partly cloudy - 23.3 1017.5 0.0
 
Date/Time
EST
Wind Sea
Height
m
Swell Vis
km
Cloud Weather Temp
°C
Press
MSL
hPa
Rain since
9am
mm
Dir  Spd
kts
Gust
kts
Height
m
Period
s
Dir
13/11:30pm SE 6 7 - - - - 10 Partly cloudy - 23.6 1017.5 0.0
13/11:00pm SE 6 7 - - - - 10 Partly cloudy - 24.0 1017.5 0.0
13/10:30pm ESE 7 9 - - - - 10 Partly cloudy - 24.7 1017.5 0.0
13/10:00pm SE 8 11 - - - - 10 Partly cloudy - 25.1 1017.6 0.0
13/09:30pm ESE 11 15 - - - - 10 Partly cloudy - 25.7 1017.5 0.0
13/09:00pm ESE 11 15 - - - - 10 Cloudy - 25.9 1017.5 0.0
13/08:30pm SE 10 16 - - - - 10 Cloudy - 26.2 1017.3 0.0
13/08:00pm ESE 11 15 - - - - 10 Cloudy - 26.4 1017.0 0.0
13/07:30pm ESE 11 16 - - - - 10 Cloudy - 26.4 1016.6 0.0
13/07:00pm ESE 12 17 - - - - 10 Cloudy - 26.6 1016.2 0.0
13/06:30pm ESE 15 21 - - - - 10 Partly cloudy - 26.9 1016.0 0.0
13/06:00pm ESE 15 19 - - - - 10 Cloudy - 27.2 1015.7 0.0
13/05:30pm ESE 12 18 - - - - 10 Partly cloudy - 27.3 1015.4 0.0
13/05:00pm ESE 13 18 - - - - 10 Partly cloudy - 27.4 1015.1 0.0
13/04:30pm E 12 20 - - - - 10 Partly cloudy - 27.7 1014.8 0.0
13/04:00pm E 9 15 - - - - 10 Partly cloudy - 28.1 1014.6 0.0
13/03:30pm E 11 18 - - - - 10 Partly cloudy - 27.5 1014.5 0.0
13/03:00pm E 9 14 - - - - 10 Cloudy Rain 27.9 1014.6 0.0
13/02:30pm ESE 10 16 - - - - 10 Partly cloudy - 26.1 1015.0 0.0
13/02:20pm ESE 12 17 - - - - 10 Partly cloudy - 25.2 1015.1 0.0
13/02:01pm ENE 17 21 - - - - 6 Partly cloudy - 25.1 1015.3 0.0
13/02:00pm E 17 21 - - - - 8 Partly cloudy - 25.1 1015.3 0.0
13/01:30pm E 18 25 - - - - 10 Partly cloudy - 26.9 1015.2 0.0
13/01:00pm E 14 20 - - - - 10 Partly cloudy - 27.7 1015.2 0.0
13/12:30pm ESE 12 16 - - - - 10 Partly cloudy - 30.4 1015.2 0.0
13/12:00pm ESE 13 18 - - - - 10 Cloudy - 29.1 1015.6 0.0
13/11:30am ESE 13 19 - - - - 10 Partly cloudy - 29.1 1016.2 0.0
13/11:00am SE 12 18 - - - - 10 Partly cloudy - 29.2 1016.6 0.0
13/10:30am SSE 10 16 - - - - 10 Partly cloudy - 28.2 1016.8 0.0
13/10:00am ESE 10 14 - - - - 10 Cloudy - 28.2 1017.0 0.0
13/09:30am SE 8 12 - - - - 10 Partly cloudy - 27.4 1016.8 0.0
13/09:00am SE 9 14 - - - - 10 - - 26.6 1016.7 -
13/08:30am SE 9 12 - - - - 10 - - 25.8 1016.5 -
13/08:00am SSE 7 11 - - - - 10 - - 24.7 1016.2 -
13/07:30am CALM 0 2 - - - - 10 - - 22.5 1016.1 -
13/07:00am WNW 3 4 - - - - 10 - - 20.4 1015.6 -
13/06:30am WNW 2 4 - - - - 10 - - 19.8 1015.3 -
13/06:00am SSW 5 6 - - - - 10 - - 20.5 1015.0 -
13/05:30am S 5 6 - - - - 10 - - 21.2 1014.9 -
13/05:00am SSW 3 4 - - - - 10 - - 21.6 1014.9 -
13/04:30am S 5 6 - - - - 10 - - 21.3 1014.9 -
13/04:00am S 5 5 - - - - 10 - - 21.2 1014.8 -
13/03:30am S 6 6 - - - - 10 - - 20.9 1014.9 -
13/03:00am S 5 5 - - - - 10 - - 21.5 1015.1 0.0
13/02:30am S 5 6 - - - - 10 - - 22.0 1015.2 -
13/02:00am SSW 7 8 - - - - 10 - - 22.2 1015.2 -
13/01:30am S 6 7 - - - - 10 - - 22.4 1015.3 -
13/01:00am SSE 6 7 - - - - 10 - - 22.9 1015.5 -
13/12:30am SE 7 9 - - - - 10 Partly cloudy - 22.9 1015.8 -
13/12:00am SE 7 9 - - - - 10 - - 22.8 1016.0 -
 
Date/Time
EST
Wind Sea
Height
m
Swell Vis
km
Cloud Weather Temp
°C
Press
MSL
hPa
Rain since
9am
mm
Dir  Spd
kts
Gust
kts
Height
m
Period
s
Dir
12/11:30pm SE 7 9 - - - - 10 - - 23.1 1016.0 -
12/11:00pm SE 5 7 - - - - 10 - - 23.0 1016.2 -
12/10:30pm SE 6 8 - - - - 10 - - 23.5 1016.0 -
12/10:00pm ESE 8 10 - - - - 10 - - 24.4 1015.9 -
12/09:30pm ESE 11 16 - - - - 10 - - 25.1 1015.9 -
12/09:00pm ESE 11 14 - - - - 10 - - 25.3 1015.8 0.0
12/08:30pm ESE 9 12 - - - - 10 - - 25.1 1015.6 -
12/08:00pm ESE 9 13 - - - - 10 - - 25.2 1015.3 -
12/07:30pm ESE 10 15 - - - - 10 - - 25.6 1014.9 -
12/07:00pm ESE 12 17 - - - - 10 - - 25.9 1014.4 -
12/06:30pm ESE 12 18 - - - - 10 Partly cloudy - 26.3 1014.0 -
12/06:00pm ESE 14 20 - - - - 10 Mostly clear - 26.4 1013.7 -
12/05:30pm E 14 20 - - - - 10 - - 27.1 1013.4 -
12/05:00pm E 14 18 - - - - 10 - - 27.9 1013.0 -
12/04:30pm E 12 16 - - - - 10 - - 28.5 1012.9 -
12/04:00pm E 11 15 - - - - 10 - - 29.4 1012.6 -
12/03:30pm NE 13 17 - - - - 10 - - 29.2 1012.6 -
12/03:00pm ENE 13 18 - - - - 10 - - 29.7 1012.5 -
12/02:30pm NE 14 17 - - - - 10 Partly cloudy - 29.5 1012.6 -
12/02:00pm ENE 11 16 - - - - 10 Partly cloudy - 29.3 1012.8 -
12/01:30pm ESE 10 16 - - - - 10 Partly cloudy - 30.0 1013.1 -
12/01:00pm E 10 15 - - - - 10 - - 30.0 1013.4 -
12/11:00am SE 9 14 - - - - 10 Mostly clear - 28.1 1015.6 -
12/10:30am SE 9 14 - - - - 10 Mostly clear - 27.3 1015.8 -
12/10:00am SE 9 14 - - - - 10 Mostly clear - 26.7 1016.0 -
12/09:30am SE 8 12 - - - - 10 Mostly clear - 26.1 1015.9 -
12/09:00am SW 4 6 - - - - 10 - - 24.7 1015.7 -
12/08:30am CALM 0 4 - - - - 10 - - 23.0 1015.5 -
12/08:00am CALM 0 0 - - - - 10 - - 21.8 1015.2 -
12/07:30am CALM 0 0 - - - - 10 - - 20.2 1014.8 -
12/07:00am ESE 4 5 - - - - 10 - - 18.4 1014.6 -
12/06:30am CALM 0 0 - - - - 10 - - 16.8 1014.3 -
12/06:00am NW 2 4 - - - - 10 - - 17.1 1014.0 -
12/05:30am NNW 4 5 - - - - 10 - - 17.8 1013.7 -
12/05:00am N 1 4 - - - - 10 - - 18.1 1013.6 -
12/04:30am CALM 0 0 - - - - 10 - - 18.0 1013.6 -
12/04:00am CALM 0 0 - - - - 10 - - 18.1 1013.6 -
12/03:30am CALM 0 0 - - - - 10 - - 18.1 1013.7 -
12/03:00am CALM 0 0 - - - - 10 - - 17.5 1013.8 -
12/02:30am CALM 0 0 - - - - 10 - - 18.0 1014.0 -
12/02:00am CALM 0 0 - - - - 10 - - 18.4 1014.1 -
12/01:30am WNW 2 4 - - - - 10 - - 18.4 1014.5 -
12/01:00am NW 4 4 - - - - 10 - - 19.0 1014.7 -
12/12:30am SSW 1 4 - - - - 10 - - 19.7 1015.1 -
12/12:00am SSW 3 4 - - - - 10 - - 20.2 1015.3 -
 
Date/Time
EST
Wind Sea
Height
m
Swell Vis
km
Cloud Weather Temp
°C
Press
MSL
hPa
Rain since
9am
mm
Dir  Spd
kts
Gust
kts
Height
m
Period
s
Dir
11/11:30pm SSW 1 4 - - - - 10 - - 20.3 1015.4 -
11/11:00pm SSW 3 4 - - - - 10 - - 20.1 1015.4 -
11/10:30pm S 4 4 - - - - 10 - - 21.1 1015.4 -
11/10:00pm S 2 5 - - - - 10 - - 21.0 1015.4 -
11/09:30pm SSE 4 5 - - - - 10 - - 21.2 1015.5 -
11/09:00pm ESE 1 5 - - - - 10 - - 20.9 1015.4 -
11/08:30pm ESE 5 7 - - - - 10 - - 22.2 1015.3 -
11/08:00pm SE 6 8 - - - - 10 - - 22.4 1014.9 -
11/07:30pm SE 6 7 - - - - 10 - - 22.8 1014.5 -
11/07:00pm ESE 7 8 - - - - 10 - - 23.4 1014.1 -
11/06:30pm ESE 6 7 - - - - 10 - - 23.7 1013.7 -
11/06:00pm E 7 8 - - - - 10 - - 24.2 1013.4 -
11/05:30pm ENE 8 10 - - - - 10 - - 25.8 1013.2 -
11/05:00pm NE 11 14 - - - - 10 - - 26.4 1013.0 -
11/04:30pm ENE 12 15 - - - - 10 - - 26.9 1012.7 -
11/04:00pm ENE 12 16 - - - - 10 - - 27.4 1012.5 -
11/03:30pm ENE 12 16 - - - - 10 - - 27.5 1012.5 -
11/03:00pm ENE 14 17 - - - - 10 - - 27.8 1012.2 -
11/02:30pm E 12 15 - - - - 10 - - 28.2 1012.2 -
11/02:00pm ESE 11 16 - - - - 10 - - 28.7 1012.5 -
11/01:30pm ENE 12 16 - - - - 10 - - 28.0 1012.9 -
11/01:00pm NE 11 15 - - - - 10 Partly cloudy - 27.7 1013.4 -
11/12:30pm NE 13 17 - - - - 10 Mostly clear - 28.1 1013.8 -
11/12:00pm E 9 14 - - - - 10 Mostly clear - 28.0 1014.4 -
11/11:30am E 10 18 - - - - 10 Mostly clear - 27.7 1014.9 -
11/11:00am ESE 6 9 - - - - 10 Mostly clear - 26.6 1015.2 -
11/10:30am ESE 7 10 - - - - 10 Partly cloudy - 26.8 1015.7 -
11/10:00am SSE 7 10 - - - - 10 Mostly clear - 26.2 1015.8 -
11/09:30am ESE 7 9 - - - - 10 Partly cloudy - 26.0 1015.7 -
11/09:00am ESE 7 10 - - - - 10 Mostly clear - 24.7 1015.4 -
11/08:30am SE 5 11 - - - - 10 Partly cloudy - 25.4 1015.1 -
11/08:00am SSW 2 5 - - - - 10 Mostly clear - 24.7 1014.7 -
11/07:30am SSW 4 5 - - - - 10 Partly cloudy - 23.1 1014.4 -
11/07:00am SSE 4 5 - - - - 10 Mostly clear - 21.6 1014.0 -
11/06:54am SSE 5 6 - - - - 10 - - 21.2 1013.9 -
11/06:30am SE 5 6 - - - - 3 - - 20.6 1013.5 -
11/06:13am SSE 6 7 - - - - 6 - - 20.8 1013.3 -
11/06:00am CALM 0 1 - - - - 10 - - 20.8 1013.2 -
11/05:30am S 1 3 - - - - 9 - - 21.3 1012.8 -
11/05:12am S 4 4 - - - - 10 - - 21.7 1012.8 -

Other formats

Comma delimited format used in spreadsheet applications
http://www.bom.gov.au/fwo/IDQ60701/IDQ60701.94294.axf

JavaScript Object Notation format (JSON) in row-major order
http://www.bom.gov.au/fwo/IDQ60701/IDQ60701.94294.json

Data quality

Most of these data are generated automatically and are frequently updated. Quality checks on data are not normally performed. It is possible for incorrect values to appear. Refer to information at About Latest Weather Observations and please check the disclaimer before using these data.